Aviation Digital Data Service (ADDS)

Output produced by METARs form (1219 UTC 15 November 2018)
found at http://www.aviationweather.gov/metar/data/
 
TAF SVBC 151000Z 1512/1612 23001KT 9999SCT016 TX34/18Z TN25/09Z 
     TEMPO 1514/1518 36003KT 9000 DZ BKN016
       
TAF SVMI 151000Z 1512/1612 09008KT 9999 SCT016 TX33/18Z TN24/10Z 
     TEMPO 1514/1518 09010KT 9000 DZ SCT100
       
TAF SVMC 151000Z 1512/1612 23003KT 9999 BKN013 TX35/18Z TN25/09Z 
     BECMG 1514/1518 18005KT FEW016 SCT070
       
TAF SVMG 151000Z 1512/1612 09012KT 9999 SCT016 TX33/19Z TN24/08Z 
     BECMG 1514/1518 09009KT FEW016
       
TAF SVJC 151000Z 1512/1612 09008KT 9999 BKN013 TX35/19Z TN25/10Z 
     BECMG 1514/1518 05006KT SCT016
       
TAF SVSA 151000Z 1512/1612 36001KT 9999 BKN016 TX32/19Z TN23/10Z 
     TEMPO 1514/1518 36004KT 9000 DZ BKN016